Time;durP1;ratioP1;P1;durP2;ratioP2;P2;SDS_P1;SDS_P2;PMS_P1;PMS_P2;Temp;Humidity;BMP_temperature;BMP_pressure;BME280_temperature;BME280_humidity;BME280_pressure;Samples;Min_cycle;Max_cycle;Signal;HPM_P1;HPM_P2
2024/01/03 00:00:16;;;;;;;26.27;14.48;;;8.70;99.90;;;;;;5015491;28;20054;-87
2024/01/03 00:02:47;;;;;;;27.48;15.00;;;8.70;99.90;;;;;;5015088;28;20034;-87
2024/01/03 00:05:13;;;;;;;;;;;8.70;99.90;;;;;;5015659;28;20366;-86
2024/01/03 00:07:40;;;;;;;23.92;14.40;;;8.70;99.90;;;;;;5015298;28;19909;-87
2024/01/03 00:10:34;;;;;;;21.27;13.23;;;8.80;99.90;;;;;;5015927;28;20478;-87
2024/01/03 00:13:00;;;;;;;28.17;16.15;;;8.80;99.90;;;;;;5013384;28;20112;-87
2024/01/03 00:15:35;;;;;;;21.70;13.57;;;8.80;99.90;;;;;;5015502;28;20072;-87
2024/01/03 00:18:04;;;;;;;22.75;14.07;;;8.80;99.90;;;;;;5015180;28;20030;-87
2024/01/03 00:20:32;;;;;;;23.53;13.73;;;8.80;99.90;;;;;;5015889;28;20042;-88
2024/01/03 00:23:10;;;;;;;26.98;15.20;;;8.80;99.90;;;;;;5015327;28;20026;-88
2024/01/03 00:25:36;;;;;;;26.52;14.00;;;8.80;99.90;;;;;;5014948;28;20022;-87
2024/01/03 00:28:02;;;;;;;23.45;14.40;;;8.80;99.90;;;;;;5014393;28;20173;-86
2024/01/03 00:30:27;;;;;;;26.05;14.98;;;8.90;99.90;;;;;;5014573;28;20022;-86
2024/01/03 00:32:53;;;;;;;25.67;14.18;;;8.90;99.90;;;;;;5012952;28;20034;-86
2024/01/03 00:35:19;;;;;;;22.77;13.80;;;8.90;99.90;;;;;;5016707;28;20081;-86
2024/01/03 00:37:46;;;;;;;24.15;12.95;;;8.90;99.90;;;;;;5014137;28;20094;-87
2024/01/03 00:41:12;;;;;;;25.23;15.20;;;8.90;99.90;;;;;;5016051;28;20077;-87
2024/01/03 00:43:38;;;;;;;24.17;14.65;;;8.90;99.90;;;;;;4980840;28;20037;-86
2024/01/03 00:46:05;;;;;;;23.48;13.75;;;8.90;99.90;;;;;;5014498;28;20050;-87
2024/01/03 00:48:31;;;;;;;22.98;14.07;;;8.90;99.90;;;;;;5027599;28;20030;-87
2024/01/03 00:50:57;;;;;;;25.20;14.65;;;8.90;99.90;;;;;;5014689;28;20100;-87
2024/01/03 00:53:24;;;;;;;25.00;14.93;;;9.00;99.90;;;;;;5019044;28;20017;-86
2024/01/03 00:55:50;;;;;;;24.35;13.55;;;9.00;99.90;;;;;;5014425;28;20030;-89
2024/01/03 00:58:15;;;;;;;24.05;14.80;;;9.00;99.90;;;;;;5017274;28;20034;-85
2024/01/03 01:00:41;;;;;;;21.98;13.68;;;9.00;99.90;;;;;;5017917;28;20104;-87
2024/01/03 01:03:07;;;;;;;20.77;13.25;;;9.00;99.90;;;;;;5016084;28;20477;-87
2024/01/03 01:05:33;;;;;;;25.77;14.68;;;9.00;99.90;;;;;;5019345;28;20051;-87
2024/01/03 01:07:59;;;;;;;25.23;13.63;;;9.00;99.90;;;;;;5019633;28;20030;-86
2024/01/03 01:10:24;;;;;;;22.45;14.10;;;9.00;99.90;;;;;;5014415;28;20080;-88
2024/01/03 01:12:50;;;;;;;24.73;14.50;;;8.90;99.90;;;;;;4996670;28;20501;-89
2024/01/03 01:15:16;;;;;;;30.00;17.85;;;8.90;99.90;;;;;;5017329;28;20157;-88
2024/01/03 01:17:42;;;;;;;20.90;13.45;;;8.80;99.90;;;;;;5021664;28;20029;-86
2024/01/03 01:20:08;;;;;;;28.23;18.05;;;8.70;99.90;;;;;;5019174;28;20026;-86
2024/01/03 01:22:33;;;;;;;25.42;16.08;;;8.70;99.90;;;;;;5013522;28;20413;-86
2024/01/03 01:24:59;;;;;;;28.17;16.63;;;8.70;99.90;;;;;;5013582;28;20026;-86
2024/01/03 01:27:24;;;;;;;24.48;15.00;;;8.60;99.90;;;;;;5015501;28;20381;-86
2024/01/03 01:29:50;;;;;;;27.48;16.50;;;8.60;99.90;;;;;;5021323;28;20461;-85
2024/01/03 01:32:16;;;;;;;31.15;18.48;;;8.60;99.90;;;;;;5028572;28;20042;-85
2024/01/03 01:34:41;;;;;;;27.15;15.13;;;8.60;99.90;;;;;;5001587;28;20054;-86
2024/01/03 01:37:08;;;;;;;22.13;13.32;;;8.50;99.90;;;;;;5016645;28;20117;-86
2024/01/03 01:39:33;;;;;;;23.17;14.13;;;8.50;99.90;;;;;;5022540;28;20017;-86
2024/01/03 01:41:59;;;;;;;31.75;18.33;;;8.50;99.90;;;;;;5019367;28;20037;-86
2024/01/03 01:44:25;;;;;;;28.25;17.70;;;8.50;99.90;;;;;;5021518;28;20441;-87
2024/01/03 01:46:52;;;;;;;22.52;13.50;;;8.50;99.90;;;;;;5023740;28;20517;-87
2024/01/03 01:49:20;;;;;;;27.45;14.75;;;8.50;99.90;;;;;;5020663;28;20021;-86
2024/01/03 01:51:47;;;;;;;26.80;15.27;;;8.50;99.90;;;;;;5022795;28;20033;-86
2024/01/03 01:54:13;;;;;;;22.15;13.85;;;8.50;99.90;;;;;;5010358;28;20400;-88
2024/01/03 01:56:40;;;;;;;22.75;12.65;;;8.60;99.90;;;;;;5027443;28;20033;-88
2024/01/03 01:59:10;;;;;;;23.63;14.32;;;8.60;99.90;;;;;;5019812;28;20030;-88
2024/01/03 02:01:36;;;;;;;23.30;14.18;;;8.50;99.90;;;;;;5015536;28;20038;-88
2024/01/03 02:04:07;;;;;;;24.45;14.18;;;8.50;99.90;;;;;;5020206;28;20030;-88
2024/01/03 02:06:33;;;;;;;24.20;14.82;;;8.60;99.90;;;;;;5026505;28;20059;-88
2024/01/03 02:08:59;;;;;;;27.00;16.13;;;8.70;99.90;;;;;;5011563;28;20025;-89
2024/01/03 02:11:25;;;;;;;29.77;17.02;;;8.70;99.90;;;;;;5022677;28;20022;-88
2024/01/03 02:13:50;;;;;;;39.15;22.27;;;8.70;99.90;;;;;;5021934;28;20053;-88
2024/01/03 02:16:16;;;;;;;24.42;14.20;;;8.70;99.90;;;;;;5015272;28;20068;-88
2024/01/03 02:18:44;;;;;;;24.00;15.05;;;8.70;99.90;;;;;;5013951;28;20397;-88
2024/01/03 02:21:16;;;;;;;28.42;17.13;;;8.70;99.90;;;;;;5030410;28;20018;-88
2024/01/03 02:23:45;;;;;;;29.73;16.90;;;8.70;99.90;;;;;;5016021;28;20033;-87
2024/01/03 02:26:11;;;;;;;18.92;11.35;;;8.60;99.90;;;;;;5014152;28;20061;-87
2024/01/03 02:28:37;;;;;;;22.90;14.40;;;8.60;99.90;;;;;;5030941;28;20532;-87
2024/01/03 02:31:03;;;;;;;21.85;13.73;;;8.60;99.90;;;;;;5025746;28;20075;-86
2024/01/03 02:33:29;;;;;;;21.65;13.00;;;8.60;99.90;;;;;;5023353;28;20072;-84
2024/01/03 02:35:54;;;;;;;28.92;16.15;;;8.60;99.90;;;;;;5021803;28;20058;-85
2024/01/03 02:38:21;;;;;;;29.73;17.58;;;8.60;99.90;;;;;;5010808;28;20075;-84
2024/01/03 02:40:47;;;;;;;20.05;12.00;;;8.60;99.90;;;;;;5027144;28;20039;-84
2024/01/03 02:43:13;;;;;;;42.55;24.13;;;8.60;99.90;;;;;;5021923;28;20045;-84
2024/01/03 02:45:39;;;;;;;29.30;16.42;;;8.50;99.90;;;;;;5022342;28;20030;-86
2024/01/03 02:48:05;;;;;;;22.98;12.80;;;8.50;99.90;;;;;;5014247;28;20029;-87
2024/01/03 02:50:31;;;;;;;36.63;21.80;;;8.50;99.90;;;;;;5020093;28;20038;-86
2024/01/03 02:52:56;;;;;;;24.85;14.70;;;8.40;99.90;;;;;;5023004;28;20026;-86
2024/01/03 02:55:22;;;;;;;27.08;14.55;;;8.40;99.90;;;;;;5021384;28;20076;-86
2024/01/03 02:57:48;;;;;;;24.42;13.80;;;8.40;99.90;;;;;;5017415;28;20072;-85
2024/01/03 03:00:14;;;;;;;22.40;12.43;;;8.40;99.90;;;;;;5018739;28;20500;-86
2024/01/03 03:02:40;;;;;;;23.23;14.13;;;8.40;99.90;;;;;;5020241;28;20022;-85
2024/01/03 03:05:06;;;;;;;20.90;13.00;;;8.50;99.90;;;;;;5012747;28;20120;-86
2024/01/03 03:07:32;;;;;;;28.60;16.17;;;8.50;99.90;;;;;;5010886;28;20021;-84
2024/01/03 03:09:58;;;;;;;20.60;12.70;;;8.50;99.90;;;;;;5028234;28;21590;-84
2024/01/03 03:12:23;;;;;;;21.92;13.55;;;8.50;99.90;;;;;;5023887;28;20033;-84
2024/01/03 03:14:49;;;;;;;20.75;13.40;;;8.50;99.90;;;;;;5027957;28;20111;-84
2024/01/03 03:17:15;;;;;;;22.02;14.07;;;8.50;99.90;;;;;;5028208;28;20029;-84
2024/01/03 03:19:41;;;;;;;21.58;13.18;;;8.60;99.90;;;;;;5021786;28;20026;-84
2024/01/03 03:22:07;;;;;;;21.77;13.25;;;8.60;99.90;;;;;;5030076;28;20365;-84
2024/01/03 03:24:32;;;;;;;22.45;13.35;;;8.70;99.90;;;;;;5021727;28;20393;-84
2024/01/03 03:26:58;;;;;;;18.67;12.45;;;8.70;99.90;;;;;;5021903;28;20034;-84
2024/01/03 03:29:24;;;;;;;21.83;13.55;;;8.70;99.90;;;;;;5027434;28;20468;-84
2024/01/03 03:31:49;;;;;;;23.05;13.40;;;8.70;99.90;;;;;;5029403;28;20028;-84
2024/01/03 03:34:17;;;;;;;22.65;13.27;;;8.70;99.90;;;;;;5007734;28;20049;-84
2024/01/03 03:36:43;;;;;;;22.13;13.43;;;8.70;99.90;;;;;;5040080;28;20029;-84
2024/01/03 03:39:09;;;;;;;21.13;12.35;;;8.80;99.90;;;;;;5038495;28;20462;-84
2024/01/03 03:41:35;;;;;;;21.65;13.02;;;8.80;99.90;;;;;;5036952;28;20060;-84
2024/01/03 03:44:01;;;;;;;18.85;12.30;;;8.80;99.90;;;;;;5036952;28;20043;-84
2024/01/03 03:46:27;;;;;;;22.45;13.80;;;8.80;99.90;;;;;;5046672;28;20439;-84
2024/01/03 03:48:52;;;;;;;19.20;12.35;;;8.80;99.90;;;;;;5043335;28;20105;-84
2024/01/03 03:51:18;;;;;;;20.88;12.82;;;8.80;99.90;;;;;;5049091;28;20366;-88
2024/01/03 03:53:44;;;;;;;23.92;14.57;;;8.80;99.90;;;;;;5045240;28;20024;-86
2024/01/03 03:56:10;;;;;;;29.23;17.08;;;8.80;99.90;;;;;;5041709;28;20060;-86
2024/01/03 03:58:35;;;;;;;21.63;13.25;;;8.70;99.90;;;;;;5035683;28;20079;-86
2024/01/03 04:01:02;;;;;;;23.70;14.13;;;8.70;99.90;;;;;;5028401;28;20504;-86
2024/01/03 04:03:28;;;;;;;22.13;13.40;;;8.70;99.90;;;;;;5044434;28;20358;-86
2024/01/03 04:05:53;;;;;;;26.45;15.13;;;8.70;99.90;;;;;;5036554;28;20037;-85
2024/01/03 04:08:19;;;;;;;25.45;13.98;;;8.70;99.90;;;;;;5035439;28;20447;-85
2024/01/03 04:10:45;;;;;;;24.00;14.02;;;8.70;99.90;;;;;;5046089;28;20043;-86
2024/01/03 04:13:11;;;;;;;22.02;12.95;;;8.70;99.90;;;;;;5048619;28;20028;-85
2024/01/03 04:15:36;;;;;;;22.27;12.98;;;8.70;99.90;;;;;;5053093;28;20044;-85
2024/01/03 04:18:05;;;;;;;23.67;13.73;;;8.70;99.90;;;;;;5037855;28;20477;-85
2024/01/03 04:20:31;;;;;;;23.35;13.85;;;8.70;99.90;;;;;;5038403;28;20067;-86
2024/01/03 04:22:57;;;;;;;22.33;12.95;;;8.70;99.90;;;;;;5051946;28;20045;-86
2024/01/03 04:25:23;;;;;;;24.75;13.75;;;8.70;99.90;;;;;;5039100;28;20104;-87
2024/01/03 04:27:49;;;;;;;20.35;13.02;;;8.70;99.90;;;;;;5039482;28;20104;-87
2024/01/03 04:30:14;;;;;;;23.75;13.63;;;8.70;99.90;;;;;;5022729;28;20026;-87
2024/01/03 04:32:40;;;;;;;20.65;12.65;;;8.70;99.90;;;;;;5045467;28;20064;-86
2024/01/03 04:35:06;;;;;;;18.42;12.05;;;8.70;99.90;;;;;;5028401;28;20084;-86
2024/01/03 04:37:33;;;;;;;22.48;13.80;;;8.70;99.90;;;;;;5034936;28;20029;-87
2024/01/03 04:39:58;;;;;;;21.08;12.90;;;8.70;99.90;;;;;;5037143;28;20031;-86
2024/01/03 04:42:24;;;;;;;21.02;12.95;;;8.70;99.90;;;;;;5034038;28;20108;-86
2024/01/03 04:44:50;;;;;;;21.38;12.55;;;8.70;99.90;;;;;;5012118;28;20034;-87
2024/01/03 04:47:16;;;;;;;22.30;12.73;;;8.70;99.90;;;;;;5033875;28;20033;-86
2024/01/03 04:49:42;;;;;;;23.88;13.40;;;8.70;99.90;;;;;;5034979;28;20092;-86
2024/01/03 04:52:07;;;;;;;27.35;14.27;;;8.70;99.90;;;;;;5017345;28;20040;-86
2024/01/03 04:54:33;;;;;;;20.75;12.73;;;8.70;99.90;;;;;;5019082;28;20040;-86
2024/01/03 04:56:59;;;;;;;18.60;11.93;;;8.70;99.90;;;;;;5034238;28;20052;-87
2024/01/03 04:59:24;;;;;;;22.77;12.88;;;8.70;99.90;;;;;;5034366;28;20017;-88
2024/01/03 05:01:50;;;;;;;22.95;13.55;;;8.60;99.90;;;;;;5034428;28;20033;-87
2024/01/03 05:04:16;;;;;;;31.20;18.10;;;8.60;99.90;;;;;;5015764;28;20036;-87
2024/01/03 05:06:42;;;;;;;21.77;13.32;;;8.70;99.90;;;;;;5036566;28;20373;-87
2024/01/03 05:09:08;;;;;;;22.67;13.43;;;8.70;99.90;;;;;;5028750;28;20029;-87
2024/01/03 05:11:34;;;;;;;23.88;12.55;;;8.70;99.90;;;;;;5032902;28;20029;-87
2024/01/03 05:13:59;;;;;;;23.13;13.63;;;8.60;99.90;;;;;;5032889;28;20037;-88
2024/01/03 05:16:25;;;;;;;19.08;12.48;;;8.70;99.90;;;;;;5033853;28;20080;-86
2024/01/03 05:18:51;;;;;;;23.88;13.52;;;8.70;99.90;;;;;;5038246;28;20417;-87
2024/01/03 05:21:16;;;;;;;23.80;14.13;;;8.70;99.90;;;;;;5042438;28;20036;-87
2024/01/03 05:23:42;;;;;;;23.50;14.05;;;8.70;99.90;;;;;;5015917;28;20041;-88
2024/01/03 05:26:08;;;;;;;23.52;13.80;;;8.60;99.90;;;;;;5033468;28;20462;-87
2024/01/03 05:28:33;;;;;;;24.42;14.77;;;8.60;99.90;;;;;;5034520;28;20033;-87
2024/01/03 05:30:59;;;;;;;20.70;12.02;;;8.60;99.90;;;;;;5042349;28;20045;-87
2024/01/03 05:33:25;;;;;;;20.85;13.30;;;8.70;99.90;;;;;;5033302;28;20083;-86
2024/01/03 05:35:51;;;;;;;25.95;15.85;;;8.70;99.90;;;;;;5034454;28;20047;-85
2024/01/03 05:38:17;;;;;;;24.17;15.00;;;8.70;99.90;;;;;;5035724;28;20037;-84
2024/01/03 05:40:43;;;;;;;23.95;14.93;;;8.70;99.90;;;;;;5020645;28;20033;-85
2024/01/03 05:43:11;;;;;;;23.33;13.93;;;8.70;99.90;;;;;;5013325;28;20473;-85
2024/01/03 05:45:36;;;;;;;29.75;17.30;;;8.70;99.90;;;;;;5033019;28;20105;-85
2024/01/03 05:48:02;;;;;;;29.08;16.60;;;8.70;99.90;;;;;;5037161;28;20113;-85
2024/01/03 05:50:28;;;;;;;21.98;12.80;;;8.70;99.90;;;;;;5034435;28;20072;-86
2024/01/03 05:52:53;;;;;;;22.65;14.32;;;8.70;99.90;;;;;;5035299;28;20079;-86
2024/01/03 05:55:19;;;;;;;20.08;13.02;;;8.70;99.90;;;;;;5032963;28;20075;-85
2024/01/03 05:57:45;;;;;;;25.40;15.02;;;8.60;99.90;;;;;;5034395;28;20037;-85
2024/01/03 06:00:11;;;;;;;24.70;14.77;;;8.70;99.90;;;;;;5023940;28;20397;-86
2024/01/03 06:02:37;;;;;;;32.25;17.42;;;8.60;99.90;;;;;;5030986;28;20033;-85
2024/01/03 06:05:03;;;;;;;23.48;13.48;;;8.60;99.90;;;;;;5033307;28;20403;-85
2024/01/03 06:07:28;;;;;;;22.23;12.88;;;8.60;99.90;;;;;;5035079;28;20030;-85
2024/01/03 06:09:55;;;;;;;30.00;18.38;;;8.70;99.90;;;;;;5033553;28;20053;-86
2024/01/03 06:12:21;;;;;;;21.50;13.95;;;8.70;99.90;;;;;;5034200;28;20029;-85
2024/01/03 06:14:46;;;;;;;20.73;11.75;;;8.60;99.90;;;;;;5034183;28;20036;-87
2024/01/03 06:17:12;;;;;;;20.13;11.65;;;8.60;99.90;;;;;;5033642;28;20041;-87
2024/01/03 06:19:37;;;;;;;17.75;10.65;;;8.60;99.90;;;;;;5023988;28;20037;-87
2024/01/03 06:22:04;;;;;;;31.73;18.33;;;8.60;99.90;;;;;;5038050;28;20478;-87
2024/01/03 06:24:29;;;;;;;25.40;15.23;;;8.60;99.90;;;;;;5033165;28;20580;-87
2024/01/03 06:26:55;;;;;;;19.02;12.07;;;8.50;99.90;;;;;;5033408;28;20061;-87
2024/01/03 06:29:21;;;;;;;21.23;13.75;;;8.50;99.90;;;;;;5033761;28;20025;-86
2024/01/03 06:31:46;;;;;;;25.45;16.63;;;8.50;99.90;;;;;;5044541;28;20350;-88
2024/01/03 06:34:12;;;;;;;23.77;14.07;;;8.50;99.90;;;;;;5042122;28;20045;-87
2024/01/03 06:36:38;;;;;;;23.02;13.18;;;8.50;99.90;;;;;;5034653;28;20081;-86
2024/01/03 06:39:03;;;;;;;22.40;14.02;;;8.50;99.90;;;;;;5042201;28;20108;-86
2024/01/03 06:41:29;;;;;;;24.05;15.68;;;8.50;99.90;;;;;;5036686;28;20029;-88
2024/01/03 06:43:55;;;;;;;25.52;15.70;;;8.60;99.90;;;;;;5044073;28;20042;-87
2024/01/03 06:46:20;;;;;;;22.25;14.63;;;8.50;99.90;;;;;;5038352;28;20029;-88
2024/01/03 06:48:46;;;;;;;27.83;16.48;;;8.50;99.90;;;;;;5038003;28;20045;-87
2024/01/03 06:51:11;;;;;;;28.33;16.77;;;8.50;99.90;;;;;;5036436;28;20025;-85
2024/01/03 06:53:38;;;;;;;31.52;17.20;;;8.50;99.90;;;;;;5040774;28;20032;-86
2024/01/03 06:56:04;;;;;;;28.13;17.02;;;8.50;99.90;;;;;;5040412;28;20033;-85
2024/01/03 06:58:30;;;;;;;26.95;15.70;;;8.50;99.90;;;;;;5039039;28;20087;-86
2024/01/03 07:00:56;;;;;;;24.83;14.70;;;8.50;99.90;;;;;;5036560;28;20056;-89
2024/01/03 07:03:22;;;;;;;29.08;17.52;;;8.60;99.90;;;;;;5038448;28;20052;-89
2024/01/03 07:05:47;;;;;;;28.88;17.80;;;8.60;99.90;;;;;;5037217;28;20052;-86
2024/01/03 07:08:13;;;;;;;30.92;17.13;;;8.60;99.90;;;;;;5042279;28;20033;-86
2024/01/03 07:10:39;;;;;;;27.10;17.17;;;8.60;99.90;;;;;;5036570;28;20029;-87
2024/01/03 07:13:05;;;;;;;27.00;16.00;;;8.50;99.90;;;;;;5035752;28;20033;-86
2024/01/03 07:15:31;;;;;;;24.88;15.75;;;8.50;99.90;;;;;;5036925;28;20013;-85
2024/01/03 07:17:56;;;;;;;38.03;22.95;;;8.50;99.90;;;;;;5036825;28;20049;-89
2024/01/03 07:20:22;;;;;;;30.73;17.33;;;8.50;99.90;;;;;;5037408;28;20021;-88
2024/01/03 07:22:49;;;;;;;26.98;17.13;;;8.60;99.90;;;;;;5037532;28;20033;-89
2024/01/03 07:25:15;;;;;;;28.35;17.48;;;8.60;99.90;;;;;;5036563;28;20025;-88
2024/01/03 07:27:41;;;;;;;27.13;15.68;;;8.60;99.90;;;;;;5028455;28;20475;-87
2024/01/03 07:30:08;;;;;;;29.63;16.75;;;8.60;99.90;;;;;;5035515;28;20116;-88
2024/01/03 07:32:34;;;;;;;31.98;17.83;;;8.60;99.90;;;;;;5035744;28;20104;-87
2024/01/03 07:35:00;;;;;;;31.77;17.90;;;8.60;99.90;;;;;;5035081;28;20141;-86
2024/01/03 07:37:25;;;;;;;35.28;21.10;;;8.60;99.90;;;;;;5034414;28;20030;-86
2024/01/03 07:39:51;;;;;;;27.02;15.85;;;8.70;99.90;;;;;;5034510;28;20059;-86
2024/01/03 07:42:17;;;;;;;26.77;15.52;;;8.70;99.90;;;;;;5034710;28;20461;-87
2024/01/03 07:44:43;;;;;;;30.77;16.77;;;8.70;99.90;;;;;;5016998;28;20041;-87
2024/01/03 07:47:11;;;;;;;30.60;16.42;;;8.80;99.90;;;;;;5018061;28;20037;-86
2024/01/03 07:49:38;;;;;;;34.25;19.85;;;8.80;99.90;;;;;;5029991;28;20021;-86
2024/01/03 07:52:05;;;;;;;30.38;18.10;;;8.90;99.90;;;;;;5023948;28;20091;-87
2024/01/03 07:54:31;;;;;;;36.30;19.90;;;8.90;99.90;;;;;;5038922;28;20053;-87
2024/01/03 07:56:57;;;;;;;28.33;17.25;;;8.90;99.90;;;;;;5034454;28;20045;-86
2024/01/03 07:59:23;;;;;;;32.25;18.20;;;8.90;99.90;;;;;;5034809;28;20057;-87
2024/01/03 08:01:49;;;;;;;31.77;18.95;;;8.90;99.90;;;;;;5035214;28;20061;-86
2024/01/03 08:04:16;;;;;;;32.60;18.33;;;8.90;99.90;;;;;;5035499;28;20060;-86
2024/01/03 08:06:42;;;;;;;31.05;17.75;;;8.90;99.90;;;;;;5034246;28;20041;-86
2024/01/03 08:09:08;;;;;;;33.70;18.02;;;8.90;99.90;;;;;;5035750;28;20029;-89
2024/01/03 08:11:34;;;;;;;48.33;24.77;;;8.90;99.90;;;;;;5036850;28;20044;-89
2024/01/03 08:13:59;;;;;;;42.83;22.15;;;8.90;99.90;;;;;;5036736;28;20025;-89
2024/01/03 08:16:25;;;;;;;37.67;20.20;;;8.80;99.90;;;;;;5037138;28;20029;-89
2024/01/03 08:18:51;;;;;;;30.20;17.00;;;8.80;99.90;;;;;;5037191;28;20067;-89
2024/01/03 08:21:16;;;;;;;49.58;25.90;;;8.80;99.90;;;;;;5019367;28;20029;-89
2024/01/03 08:23:42;;;;;;;36.47;19.52;;;8.80;99.90;;;;;;5018624;28;20113;-89
2024/01/03 08:26:12;;;;;;;38.05;21.45;;;8.80;99.90;;;;;;5037127;28;20017;-89
2024/01/03 08:28:41;;;;;;;29.60;17.37;;;8.80;99.90;;;;;;5036609;28;20032;-89
2024/01/03 08:31:17;;;;;;;30.42;16.80;;;8.80;99.90;;;;;;5018987;28;20347;-89
2024/01/03 08:33:45;;;;;;;27.02;16.25;;;8.80;99.90;;;;;;5018933;28;20025;-89
2024/01/03 08:36:13;;;;;;;35.03;19.75;;;8.70;99.90;;;;;;5017501;28;20060;-90
2024/01/03 08:38:39;;;;;;;28.10;15.73;;;8.80;99.90;;;;;;5016618;28;20525;-90
2024/01/03 08:41:15;;;;;;;28.55;17.08;;;8.80;99.90;;;;;;5012885;28;20056;-89
2024/01/03 08:43:41;;;;;;;38.65;22.10;;;8.80;99.90;;;;;;4999063;28;20030;-89
2024/01/03 08:46:07;;;;;;;35.13;19.75;;;8.80;99.90;;;;;;4998872;28;20040;-88
2024/01/03 08:48:33;;;;;;;36.25;20.50;;;8.80;99.90;;;;;;4997736;28;20027;-89
2024/01/03 08:50:58;;;;;;;34.28;18.80;;;8.90;99.90;;;;;;4978957;28;20054;-89
2024/01/03 08:53:24;;;;;;;29.20;15.88;;;8.90;99.90;;;;;;5025009;28;20114;-87
2024/01/03 08:55:50;;;;;;;31.83;17.95;;;8.90;99.90;;;;;;5017960;28;20544;-88
2024/01/03 08:58:16;;;;;;;32.05;16.95;;;9.00;99.90;;;;;;5022354;28;20068;-88
2024/01/03 09:00:43;;;;;;;31.90;17.65;;;9.10;99.90;;;;;;5019249;28;20033;-88
2024/01/03 09:03:09;;;;;;;39.47;20.10;;;9.10;99.90;;;;;;5027886;28;20022;-88
2024/01/03 09:05:34;;;;;;;29.48;17.23;;;9.10;99.90;;;;;;5030428;28;20026;-88
2024/01/03 09:08:00;;;;;;;31.13;17.55;;;9.20;99.90;;;;;;5035507;28;20109;-88
2024/01/03 09:10:26;;;;;;;34.60;18.27;;;9.20;99.90;;;;;;5035765;28;20029;-88
2024/01/03 09:12:51;;;;;;;26.90;15.40;;;9.20;99.90;;;;;;5018189;28;20028;-88
2024/01/03 09:15:17;;;;;;;36.58;20.08;;;9.20;99.90;;;;;;5024224;28;20033;-87
2024/01/03 09:17:43;;;;;;;35.75;19.88;;;9.20;99.90;;;;;;5015009;28;20092;-88
2024/01/03 09:20:12;;;;;;;40.08;20.08;;;9.20;99.90;;;;;;5015775;28;20084;-88
2024/01/03 09:22:38;;;;;;;36.75;19.35;;;9.30;99.90;;;;;;5015910;28;20428;-89
2024/01/03 09:25:04;;;;;;;59.55;30.45;;;9.30;99.90;;;;;;5028965;28;20381;-90
2024/01/03 09:27:33;;;;;;;34.33;20.20;;;9.20;99.90;;;;;;4997783;28;20029;-90
2024/01/03 09:30:02;;;;;;;33.53;18.42;;;9.20;99.90;;;;;;5015832;28;20033;-89
2024/01/03 09:32:30;;;;;;;36.58;19.95;;;9.20;99.90;;;;;;5015925;28;20037;-88
2024/01/03 09:34:59;;;;;;;35.00;18.98;;;9.20;99.90;;;;;;5004458;28;20049;-90
2024/01/03 09:37:24;;;;;;;30.02;17.30;;;9.30;99.90;;;;;;5015260;28;20030;-88
2024/01/03 09:39:50;;;;;;;36.88;20.77;;;9.30;99.90;;;;;;5015611;28;20089;-87
2024/01/03 09:42:16;;;;;;;29.65;16.42;;;9.40;99.90;;;;;;5028215;28;20025;-88
2024/01/03 09:44:42;;;;;;;30.73;16.65;;;9.40;99.90;;;;;;5033037;28;20037;-88
2024/01/03 09:47:08;;;;;;;28.52;16.45;;;9.40;99.90;;;;;;5015181;28;20101;-87
2024/01/03 09:49:34;;;;;;;31.60;17.40;;;9.40;99.90;;;;;;5014744;28;20065;-87
2024/01/03 09:52:01;;;;;;;33.92;18.52;;;9.50;99.90;;;;;;5015211;28;20021;-87
2024/01/03 09:54:26;;;;;;;28.02;15.95;;;9.50;99.90;;;;;;5015259;28;20079;-88
2024/01/03 09:56:52;;;;;;;42.22;23.45;;;9.50;99.90;;;;;;4997321;28;20030;-87
2024/01/03 09:59:21;;;;;;;35.75;19.98;;;9.50;99.90;;;;;;5014836;28;20470;-87
2024/01/03 10:01:58;;;;;;;31.65;17.30;;;9.50;99.90;;;;;;5014742;28;20026;-88
2024/01/03 10:04:26;;;;;;;26.60;16.38;;;9.60;99.90;;;;;;5014646;28;20089;-88
2024/01/03 10:06:57;;;;;;;32.17;18.10;;;9.70;99.90;;;;;;5014562;28;20021;-88
2024/01/03 10:09:24;;;;;;;33.08;17.42;;;9.80;99.90;;;;;;5014833;28;20022;-89
2024/01/03 10:11:52;;;;;;;33.20;18.35;;;9.90;99.90;;;;;;5014840;28;20029;-87
2024/01/03 10:14:20;;;;;;;33.15;17.33;;;10.00;99.70;;;;;;5012901;28;20073;-88
2024/01/03 10:16:47;;;;;;;40.05;21.80;;;10.00;99.10;;;;;;5013862;28;20054;-86
2024/01/03 10:19:20;;;;;;;30.67;17.58;;;10.00;99.60;;;;;;5014290;28;20038;-87
2024/01/03 10:21:53;;;;;;;31.27;18.08;;;10.10;99.40;;;;;;5014925;28;20033;-88
2024/01/03 10:24:21;;;;;;;45.05;25.75;;;10.10;99.40;;;;;;5014916;28;20084;-86
2024/01/03 10:26:48;;;;;;;30.98;18.42;;;10.10;98.70;;;;;;5014408;28;20019;-89
2024/01/03 10:29:16;;;;;;;28.98;16.67;;;10.00;98.80;;;;;;5010419;28;20030;-90
2024/01/03 10:31:43;;;;;;;26.33;15.73;;;10.00;99.00;;;;;;5009844;28;20498;-90
2024/01/03 10:34:17;;;;;;;28.58;15.93;;;10.10;98.90;;;;;;5018206;28;20060;-89
2024/01/03 10:36:44;;;;;;;23.90;15.50;;;10.10;99.00;;;;;;5035225;28;20040;-90
2024/01/03 10:39:18;;;;;;;26.98;16.23;;;10.20;98.80;;;;;;5035667;28;20100;-89
2024/01/03 10:41:46;;;;;;;31.98;19.30;;;10.10;98.90;;;;;;5034214;28;20057;-90
2024/01/03 10:44:14;;;;;;;22.70;14.55;;;10.10;98.80;;;;;;5015804;28;20033;-90
2024/01/03 10:46:41;;;;;;;35.17;20.83;;;10.20;98.80;;;;;;5016980;28;20021;-90
2024/01/03 10:49:07;;;;;;;26.67;16.15;;;10.20;98.80;;;;;;5034325;28;20029;-91
2024/01/03 10:51:41;;;;;;;24.95;16.20;;;10.30;99.00;;;;;;5034552;28;20030;-90
2024/01/03 10:54:14;;;;;;;26.48;15.90;;;10.40;98.90;;;;;;5034827;28;20057;-90
2024/01/03 10:56:46;;;;;;;23.10;13.95;;;10.60;98.90;;;;;;5034133;28;20105;-90
2024/01/03 10:59:13;;;;;;;22.42;14.52;;;10.80;98.60;;;;;;5034607;28;20037;-92
2024/01/03 11:01:45;;;;;;;23.05;14.70;;;10.80;98.20;;;;;;5017399;28;20029;-92
2024/01/03 11:04:21;;;;;;;21.80;13.88;;;10.80;98.20;;;;;;5034883;28;20035;-90
2024/01/03 11:06:49;;;;;;;25.50;15.13;;;10.80;97.80;;;;;;5015192;28;20026;-91
2024/01/03 11:09:15;;;;;;;31.65;18.10;;;10.70;97.90;;;;;;5027016;28;20030;-89
2024/01/03 11:11:41;;;;;;;29.08;17.40;;;10.60;97.90;;;;;;5034292;28;20068;-91
2024/01/03 11:14:19;;;;;;;25.73;16.42;;;10.60;98.10;;;;;;5042048;28;20059;-90
2024/01/03 11:16:45;;;;;;;25.42;16.38;;;10.60;98.10;;;;;;5033963;28;20072;-90
2024/01/03 11:19:12;;;;;;;24.10;14.55;;;10.60;98.00;;;;;;5038129;28;20085;-91
2024/01/03 11:21:40;;;;;;;21.17;13.23;;;10.60;98.10;;;;;;5038395;28;20033;-89
2024/01/03 11:24:20;;;;;;;24.17;16.20;;;10.60;98.10;;;;;;5051845;28;20108;-91
2024/01/03 11:26:55;;;;;;;26.60;16.00;;;10.50;98.20;;;;;;5037849;28;20040;-89
2024/01/03 11:29:42;;;;;;;29.35;17.23;;;10.50;98.20;;;;;;5038230;28;20354;-89
2024/01/03 11:32:14;;;;;;;25.60;15.48;;;10.50;97.90;;;;;;5018210;28;20030;-88
2024/01/03 11:34:44;;;;;;;22.83;15.00;;;10.50;98.20;;;;;;5020639;28;20053;-89
2024/01/03 11:37:18;;;;;;;26.55;15.85;;;10.60;98.00;;;;;;5037784;28;20466;-89
2024/01/03 11:39:46;;;;;;;25.90;15.60;;;10.60;98.10;;;;;;5016268;28;20057;-85
2024/01/03 11:42:23;;;;;;;25.00;15.55;;;10.60;98.20;;;;;;5034970;28;20521;-86
2024/01/03 11:45:09;;;;;;;23.40;13.38;;;10.60;98.20;;;;;;5036392;28;20546;-87
2024/01/03 11:47:38;;;;;;;23.63;15.35;;;10.70;98.00;;;;;;5037122;28;20033;-87
2024/01/03 11:50:05;;;;;;;29.52;18.05;;;10.70;97.70;;;;;;5035078;28;20044;-87
2024/01/03 11:52:35;;;;;;;39.70;24.40;;;10.70;97.50;;;;;;5037481;28;20021;-87
2024/01/03 11:55:04;;;;;;;26.02;16.35;;;10.70;97.60;;;;;;5037176;28;20060;-87
2024/01/03 11:57:30;;;;;;;22.13;14.38;;;10.70;97.80;;;;;;5036945;28;20029;-87
2024/01/03 12:00:03;;;;;;;26.25;15.38;;;10.70;97.80;;;;;;5036961;28;20461;-86
2024/01/03 12:02:29;;;;;;;34.72;21.13;;;10.80;97.90;;;;;;5036027;28;20029;-87
2024/01/03 12:05:12;;;;;;;31.52;18.65;;;10.90;97.10;;;;;;5036072;28;20359;-87
2024/01/03 12:07:38;;;;;;;23.08;14.75;;;10.90;97.40;;;;;;5040120;28;20108;-88
2024/01/03 12:10:06;;;;;;;23.95;14.93;;;10.90;97.40;;;;;;5034929;28;20062;-88
2024/01/03 12:12:32;;;;;;;21.90;13.55;;;11.00;97.60;;;;;;5037191;28;20036;-89
2024/01/03 12:14:58;;;;;;;22.33;13.88;;;11.10;97.50;;;;;;5035469;28;20107;-87
2024/01/03 12:17:29;;;;;;;24.48;16.15;;;11.10;97.30;;;;;;5036630;28;20069;-89
2024/01/03 12:20:07;;;;;;;29.52;17.88;;;11.10;97.30;;;;;;5036817;28;20033;-88
2024/01/03 12:22:33;;;;;;;22.67;15.00;;;11.10;97.10;;;;;;5043999;28;20028;-88
2024/01/03 12:24:58;;;;;;;24.17;15.00;;;11.00;97.20;;;;;;5037103;28;20135;-89
2024/01/03 12:27:24;;;;;;;19.05;13.88;;;10.90;97.10;;;;;;5036110;28;20060;-88
2024/01/03 12:29:53;;;;;;;24.90;14.30;;;10.90;97.30;;;;;;5033467;28;20462;-88
2024/01/03 12:32:20;;;;;;;23.90;15.65;;;10.90;97.10;;;;;;5005363;28;20029;-89
2024/01/03 12:34:47;;;;;;;36.25;21.52;;;10.90;97.30;;;;;;5037004;28;20608;-89